sensor_id;sensor_type;location;lat;lon;timestamp;temperature;humidity
13482;DHT22;6813;60.352;15.746;2022-08-24T00:01:07;14.70;99.90
13482;DHT22;6813;60.352;15.746;2022-08-24T00:03:35;14.60;99.90
13482;DHT22;6813;60.352;15.746;2022-08-24T00:06:06;14.60;99.90
13482;DHT22;6813;60.352;15.746;2022-08-24T00:08:35;14.60;99.90
13482;DHT22;6813;60.352;15.746;2022-08-24T00:11:01;14.60;99.90
13482;DHT22;6813;60.352;15.746;2022-08-24T00:13:29;14.60;99.90
13482;DHT22;6813;60.352;15.746;2022-08-24T00:15:55;14.50;99.90
13482;DHT22;6813;60.352;15.746;2022-08-24T00:18:21;14.50;99.90
13482;DHT22;6813;60.352;15.746;2022-08-24T00:20:49;14.50;99.90
13482;DHT22;6813;60.352;15.746;2022-08-24T00:23:15;14.40;99.90
13482;DHT22;6813;60.352;15.746;2022-08-24T00:25:42;14.40;99.90
13482;DHT22;6813;60.352;15.746;2022-08-24T00:28:08;14.40;99.90
13482;DHT22;6813;60.352;15.746;2022-08-24T00:30:34;14.40;99.90
13482;DHT22;6813;60.352;15.746;2022-08-24T00:33:00;14.30;99.90
13482;DHT22;6813;60.352;15.746;2022-08-24T00:35:26;14.30;99.90
13482;DHT22;6813;60.352;15.746;2022-08-24T00:37:53;14.30;99.90
13482;DHT22;6813;60.352;15.746;2022-08-24T00:40:30;14.30;99.90
13482;DHT22;6813;60.352;15.746;2022-08-24T00:42:59;14.30;99.90
13482;DHT22;6813;60.352;15.746;2022-08-24T00:45:35;14.30;99.90
13482;DHT22;6813;60.352;15.746;2022-08-24T00:48:05;14.30;99.90
13482;DHT22;6813;60.352;15.746;2022-08-24T00:50:42;14.20;99.90
13482;DHT22;6813;60.352;15.746;2022-08-24T00:53:14;14.20;99.90
13482;DHT22;6813;60.352;15.746;2022-08-24T00:55:53;14.20;99.90
13482;DHT22;6813;60.352;15.746;2022-08-24T00:58:30;14.20;99.90
13482;DHT22;6813;60.352;15.746;2022-08-24T01:01:00;14.10;99.90
13482;DHT22;6813;60.352;15.746;2022-08-24T01:03:29;14.10;99.90
13482;DHT22;6813;60.352;15.746;2022-08-24T01:05:57;14.10;99.90
13482;DHT22;6813;60.352;15.746;2022-08-24T01:08:23;14.10;99.90
13482;DHT22;6813;60.352;15.746;2022-08-24T01:10:52;14.10;99.90
13482;DHT22;6813;60.352;15.746;2022-08-24T01:13:21;14.10;99.90
13482;DHT22;6813;60.352;15.746;2022-08-24T01:15:49;14.10;99.90
13482;DHT22;6813;60.352;15.746;2022-08-24T01:18:20;14.00;99.90
13482;DHT22;6813;60.352;15.746;2022-08-24T01:21:15;14.00;99.90
13482;DHT22;6813;60.352;15.746;2022-08-24T01:24:01;14.00;99.90
13482;DHT22;6813;60.352;15.746;2022-08-24T01:26:34;14.00;99.90
13482;DHT22;6813;60.352;15.746;2022-08-24T01:29:04;13.90;99.90
13482;DHT22;6813;60.352;15.746;2022-08-24T01:31:31;13.90;99.90
13482;DHT22;6813;60.352;15.746;2022-08-24T01:33:59;13.90;99.90
13482;DHT22;6813;60.352;15.746;2022-08-24T01:36:50;13.80;99.90
13482;DHT22;6813;60.352;15.746;2022-08-24T01:41:55;13.70;99.90
13482;DHT22;6813;60.352;15.746;2022-08-24T01:44:23;13.70;99.90
13482;DHT22;6813;60.352;15.746;2022-08-24T01:46:52;13.70;99.90
13482;DHT22;6813;60.352;15.746;2022-08-24T01:49:18;13.70;99.90
13482;DHT22;6813;60.352;15.746;2022-08-24T01:51:45;13.60;99.90
13482;DHT22;6813;60.352;15.746;2022-08-24T01:54:13;13.60;99.90
13482;DHT22;6813;60.352;15.746;2022-08-24T01:56:39;13.60;99.90
13482;DHT22;6813;60.352;15.746;2022-08-24T01:59:05;13.50;99.90
13482;DHT22;6813;60.352;15.746;2022-08-24T02:01:35;13.50;99.90
13482;DHT22;6813;60.352;15.746;2022-08-24T02:04:06;13.40;99.90
13482;DHT22;6813;60.352;15.746;2022-08-24T02:06:31;13.30;99.90
13482;DHT22;6813;60.352;15.746;2022-08-24T02:08:58;13.30;99.90
13482;DHT22;6813;60.352;15.746;2022-08-24T02:11:25;13.30;99.90
13482;DHT22;6813;60.352;15.746;2022-08-24T02:13:51;13.30;99.90
13482;DHT22;6813;60.352;15.746;2022-08-24T02:16:18;13.30;99.90
13482;DHT22;6813;60.352;15.746;2022-08-24T02:18:45;13.30;99.90
13482;DHT22;6813;60.352;15.746;2022-08-24T02:21:12;13.30;99.90
13482;DHT22;6813;60.352;15.746;2022-08-24T02:23:40;13.30;99.90
13482;DHT22;6813;60.352;15.746;2022-08-24T02:26:08;13.30;99.90
13482;DHT22;6813;60.352;15.746;2022-08-24T02:28:35;13.20;99.90
13482;DHT22;6813;60.352;15.746;2022-08-24T02:31:02;13.10;99.90
13482;DHT22;6813;60.352;15.746;2022-08-24T02:33:31;13.10;99.90
13482;DHT22;6813;60.352;15.746;2022-08-24T02:35:57;13.00;99.90
13482;DHT22;6813;60.352;15.746;2022-08-24T02:38:23;13.00;99.90
13482;DHT22;6813;60.352;15.746;2022-08-24T02:40:49;13.10;99.90
13482;DHT22;6813;60.352;15.746;2022-08-24T02:43:16;13.10;99.90
13482;DHT22;6813;60.352;15.746;2022-08-24T02:45:45;13.00;99.90
13482;DHT22;6813;60.352;15.746;2022-08-24T02:48:12;13.00;99.90
13482;DHT22;6813;60.352;15.746;2022-08-24T02:50:43;13.00;99.90
13482;DHT22;6813;60.352;15.746;2022-08-24T02:53:11;13.00;99.90
13482;DHT22;6813;60.352;15.746;2022-08-24T02:55:40;13.00;99.90
13482;DHT22;6813;60.352;15.746;2022-08-24T02:58:11;12.90;99.90
13482;DHT22;6813;60.352;15.746;2022-08-24T03:00:38;12.90;99.90
13482;DHT22;6813;60.352;15.746;2022-08-24T03:03:06;12.90;99.90
13482;DHT22;6813;60.352;15.746;2022-08-24T03:05:33;12.80;99.90
13482;DHT22;6813;60.352;15.746;2022-08-24T03:07:59;12.90;99.90
13482;DHT22;6813;60.352;15.746;2022-08-24T03:10:25;12.80;99.90
13482;DHT22;6813;60.352;15.746;2022-08-24T03:12:52;12.80;99.90
13482;DHT22;6813;60.352;15.746;2022-08-24T03:15:19;12.80;99.90
13482;DHT22;6813;60.352;15.746;2022-08-24T03:17:49;12.80;99.90
13482;DHT22;6813;60.352;15.746;2022-08-24T03:20:17;12.80;99.90
13482;DHT22;6813;60.352;15.746;2022-08-24T03:22:46;12.70;99.90
13482;DHT22;6813;60.352;15.746;2022-08-24T03:25:14;12.70;99.90
13482;DHT22;6813;60.352;15.746;2022-08-24T03:27:41;12.70;99.90
13482;DHT22;6813;60.352;15.746;2022-08-24T03:30:08;12.60;99.90
13482;DHT22;6813;60.352;15.746;2022-08-24T03:32:35;12.50;99.90
13482;DHT22;6813;60.352;15.746;2022-08-24T03:35:01;12.50;99.90
13482;DHT22;6813;60.352;15.746;2022-08-24T03:37:29;12.50;99.90
13482;DHT22;6813;60.352;15.746;2022-08-24T03:39:58;12.50;99.90
13482;DHT22;6813;60.352;15.746;2022-08-24T03:42:23;12.50;99.90
13482;DHT22;6813;60.352;15.746;2022-08-24T03:44:49;12.50;99.90
13482;DHT22;6813;60.352;15.746;2022-08-24T03:47:15;12.50;99.90
13482;DHT22;6813;60.352;15.746;2022-08-24T03:49:44;12.50;99.90
13482;DHT22;6813;60.352;15.746;2022-08-24T03:52:10;12.50;99.90
13482;DHT22;6813;60.352;15.746;2022-08-24T03:54:36;12.50;99.90
13482;DHT22;6813;60.352;15.746;2022-08-24T03:57:04;12.50;99.90
13482;DHT22;6813;60.352;15.746;2022-08-24T03:59:30;12.60;99.90
13482;DHT22;6813;60.352;15.746;2022-08-24T04:01:56;12.50;99.90
13482;DHT22;6813;60.352;15.746;2022-08-24T04:04:23;12.50;99.90
13482;DHT22;6813;60.352;15.746;2022-08-24T04:06:50;12.60;99.90
13482;DHT22;6813;60.352;15.746;2022-08-24T04:09:18;12.60;99.90
13482;DHT22;6813;60.352;15.746;2022-08-24T04:11:44;12.60;99.90
13482;DHT22;6813;60.352;15.746;2022-08-24T04:14:13;12.60;99.90
13482;DHT22;6813;60.352;15.746;2022-08-24T04:16:39;12.70;99.90
13482;DHT22;6813;60.352;15.746;2022-08-24T04:19:04;12.70;99.90
13482;DHT22;6813;60.352;15.746;2022-08-24T04:21:35;12.80;99.90
13482;DHT22;6813;60.352;15.746;2022-08-24T04:24:02;12.80;99.90
13482;DHT22;6813;60.352;15.746;2022-08-24T04:26:29;12.80;99.90
13482;DHT22;6813;60.352;15.746;2022-08-24T04:28:56;12.80;99.90
13482;DHT22;6813;60.352;15.746;2022-08-24T04:31:23;12.80;99.90
13482;DHT22;6813;60.352;15.746;2022-08-24T04:33:50;12.70;99.90
13482;DHT22;6813;60.352;15.746;2022-08-24T04:36:18;12.70;99.90
13482;DHT22;6813;60.352;15.746;2022-08-24T04:38:45;12.70;99.90
13482;DHT22;6813;60.352;15.746;2022-08-24T04:41:13;12.70;99.90
13482;DHT22;6813;60.352;15.746;2022-08-24T04:43:39;12.70;99.90
13482;DHT22;6813;60.352;15.746;2022-08-24T04:46:10;12.70;99.90
13482;DHT22;6813;60.352;15.746;2022-08-24T04:48:41;12.70;99.90
13482;DHT22;6813;60.352;15.746;2022-08-24T04:51:08;12.70;99.90
13482;DHT22;6813;60.352;15.746;2022-08-24T04:53:34;12.80;99.90
13482;DHT22;6813;60.352;15.746;2022-08-24T04:56:00;12.90;99.90
13482;DHT22;6813;60.352;15.746;2022-08-24T04:58:28;13.00;99.90
13482;DHT22;6813;60.352;15.746;2022-08-24T05:00:54;13.00;99.90
13482;DHT22;6813;60.352;15.746;2022-08-24T05:03:20;12.90;99.90
13482;DHT22;6813;60.352;15.746;2022-08-24T05:05:50;12.70;99.90
13482;DHT22;6813;60.352;15.746;2022-08-24T05:08:18;12.60;99.90
13482;DHT22;6813;60.352;15.746;2022-08-24T05:10:45;12.70;99.90
13482;DHT22;6813;60.352;15.746;2022-08-24T05:13:14;12.90;99.90
13482;DHT22;6813;60.352;15.746;2022-08-24T05:15:44;13.10;99.90
13482;DHT22;6813;60.352;15.746;2022-08-24T05:18:11;13.30;99.90
13482;DHT22;6813;60.352;15.746;2022-08-24T05:20:42;13.50;99.90
13482;DHT22;6813;60.352;15.746;2022-08-24T05:23:08;14.00;99.90
13482;DHT22;6813;60.352;15.746;2022-08-24T05:25:34;14.40;99.90
13482;DHT22;6813;60.352;15.746;2022-08-24T05:28:00;14.80;99.90
13482;DHT22;6813;60.352;15.746;2022-08-24T05:30:26;15.20;99.90
13482;DHT22;6813;60.352;15.746;2022-08-24T05:32:52;15.70;99.90
13482;DHT22;6813;60.352;15.746;2022-08-24T05:35:19;16.10;99.90
13482;DHT22;6813;60.352;15.746;2022-08-24T05:37:45;16.40;99.90
13482;DHT22;6813;60.352;15.746;2022-08-24T05:40:13;16.80;99.90
13482;DHT22;6813;60.352;15.746;2022-08-24T05:42:39;17.10;99.90
13482;DHT22;6813;60.352;15.746;2022-08-24T05:45:07;17.50;99.90
13482;DHT22;6813;60.352;15.746;2022-08-24T05:47:33;17.80;99.90
13482;DHT22;6813;60.352;15.746;2022-08-24T05:50:00;18.10;99.90
13482;DHT22;6813;60.352;15.746;2022-08-24T05:52:28;18.30;99.90
13482;DHT22;6813;60.352;15.746;2022-08-24T05:54:56;18.60;99.90
13482;DHT22;6813;60.352;15.746;2022-08-24T05:57:23;19.00;99.90
13482;DHT22;6813;60.352;15.746;2022-08-24T05:59:50;19.20;99.90
13482;DHT22;6813;60.352;15.746;2022-08-24T06:02:17;19.50;99.90
13482;DHT22;6813;60.352;15.746;2022-08-24T06:04:44;19.80;99.90
13482;DHT22;6813;60.352;15.746;2022-08-24T06:07:10;20.00;99.90
13482;DHT22;6813;60.352;15.746;2022-08-24T06:09:37;20.30;99.90
13482;DHT22;6813;60.352;15.746;2022-08-24T06:12:04;20.50;99.90
13482;DHT22;6813;60.352;15.746;2022-08-24T06:14:34;20.70;99.90
13482;DHT22;6813;60.352;15.746;2022-08-24T06:17:03;21.00;99.90
13482;DHT22;6813;60.352;15.746;2022-08-24T06:19:29;21.30;99.90
13482;DHT22;6813;60.352;15.746;2022-08-24T06:21:54;21.40;99.90
13482;DHT22;6813;60.352;15.746;2022-08-24T06:24:21;21.60;99.90
13482;DHT22;6813;60.352;15.746;2022-08-24T06:27:11;21.90;99.90
13482;DHT22;6813;60.352;15.746;2022-08-24T06:29:51;22.10;99.90
13482;DHT22;6813;60.352;15.746;2022-08-24T06:32:17;22.20;99.90
13482;DHT22;6813;60.352;15.746;2022-08-24T06:34:43;22.40;99.90
13482;DHT22;6813;60.352;15.746;2022-08-24T06:37:09;22.60;99.90
13482;DHT22;6813;60.352;15.746;2022-08-24T06:39:35;22.70;99.90
13482;DHT22;6813;60.352;15.746;2022-08-24T06:42:00;22.90;99.50
13482;DHT22;6813;60.352;15.746;2022-08-24T06:44:26;23.10;99.50
13482;DHT22;6813;60.352;15.746;2022-08-24T06:46:52;23.30;99.10
13482;DHT22;6813;60.352;15.746;2022-08-24T06:49:18;23.40;99.00
13482;DHT22;6813;60.352;15.746;2022-08-24T06:51:45;23.50;99.20
13482;DHT22;6813;60.352;15.746;2022-08-24T06:54:11;23.70;98.70
13482;DHT22;6813;60.352;15.746;2022-08-24T06:56:37;23.90;98.30
13482;DHT22;6813;60.352;15.746;2022-08-24T06:59:04;24.00;98.40
13482;DHT22;6813;60.352;15.746;2022-08-24T07:01:31;24.10;98.00
13482;DHT22;6813;60.352;15.746;2022-08-24T07:03:57;24.30;97.90
13482;DHT22;6813;60.352;15.746;2022-08-24T07:06:23;24.40;97.50
13482;DHT22;6813;60.352;15.746;2022-08-24T07:08:50;24.50;96.90
13482;DHT22;6813;60.352;15.746;2022-08-24T07:11:17;24.50;97.70
13482;DHT22;6813;60.352;15.746;2022-08-24T07:13:44;24.50;97.50
13482;DHT22;6813;60.352;15.746;2022-08-24T07:16:13;24.70;97.50
13482;DHT22;6813;60.352;15.746;2022-08-24T07:18:39;24.90;96.80
13482;DHT22;6813;60.352;15.746;2022-08-24T07:21:05;25.10;96.70
13482;DHT22;6813;60.352;15.746;2022-08-24T07:23:33;25.10;96.30
13482;DHT22;6813;60.352;15.746;2022-08-24T07:26:05;25.20;96.10
13482;DHT22;6813;60.352;15.746;2022-08-24T07:28:36;25.30;95.90
13482;DHT22;6813;60.352;15.746;2022-08-24T07:31:02;25.40;95.70
13482;DHT22;6813;60.352;15.746;2022-08-24T07:33:29;25.50;95.20
13482;DHT22;6813;60.352;15.746;2022-08-24T07:35:55;25.30;95.40
13482;DHT22;6813;60.352;15.746;2022-08-24T07:38:22;25.20;95.60
13482;DHT22;6813;60.352;15.746;2022-08-24T07:40:48;25.30;95.70
13482;DHT22;6813;60.352;15.746;2022-08-24T07:43:14;25.50;95.60
13482;DHT22;6813;60.352;15.746;2022-08-24T07:45:42;25.60;95.10
13482;DHT22;6813;60.352;15.746;2022-08-24T07:48:08;25.50;94.90
13482;DHT22;6813;60.352;15.746;2022-08-24T07:50:33;25.50;95.20
13482;DHT22;6813;60.352;15.746;2022-08-24T07:52:59;25.50;95.20
13482;DHT22;6813;60.352;15.746;2022-08-24T07:55:25;25.50;95.10
13482;DHT22;6813;60.352;15.746;2022-08-24T07:57:51;25.70;94.80
13482;DHT22;6813;60.352;15.746;2022-08-24T08:00:19;25.80;94.30
13482;DHT22;6813;60.352;15.746;2022-08-24T08:02:45;25.90;94.20
13482;DHT22;6813;60.352;15.746;2022-08-24T08:05:18;26.00;93.90
13482;DHT22;6813;60.352;15.746;2022-08-24T08:07:45;26.10;93.60
13482;DHT22;6813;60.352;15.746;2022-08-24T08:10:13;26.00;93.40
13482;DHT22;6813;60.352;15.746;2022-08-24T08:12:39;26.00;92.90
13482;DHT22;6813;60.352;15.746;2022-08-24T08:15:07;26.10;93.10
13482;DHT22;6813;60.352;15.746;2022-08-24T08:17:36;26.20;92.60
13482;DHT22;6813;60.352;15.746;2022-08-24T08:20:04;26.20;92.30
13482;DHT22;6813;60.352;15.746;2022-08-24T08:22:32;26.30;92.40
13482;DHT22;6813;60.352;15.746;2022-08-24T08:25:16;26.40;92.10
13482;DHT22;6813;60.352;15.746;2022-08-24T08:27:42;26.40;92.10
13482;DHT22;6813;60.352;15.746;2022-08-24T08:30:09;26.40;92.20
13482;DHT22;6813;60.352;15.746;2022-08-24T08:32:35;26.50;92.50
13482;DHT22;6813;60.352;15.746;2022-08-24T08:35:00;26.60;92.10
13482;DHT22;6813;60.352;15.746;2022-08-24T08:37:27;26.70;92.00
13482;DHT22;6813;60.352;15.746;2022-08-24T08:39:53;26.90;91.40
13482;DHT22;6813;60.352;15.746;2022-08-24T08:45:28;27.10;91.10
13482;DHT22;6813;60.352;15.746;2022-08-24T08:48:16;27.20;90.50
13482;DHT22;6813;60.352;15.746;2022-08-24T08:51:20;27.40;89.50
13482;DHT22;6813;60.352;15.746;2022-08-24T08:54:12;27.50;88.70
13482;DHT22;6813;60.352;15.746;2022-08-24T09:05:01;27.50;85.90
13482;DHT22;6813;60.352;15.746;2022-08-24T09:07:45;27.50;85.40
13482;DHT22;6813;60.352;15.746;2022-08-24T09:10:38;27.60;86.50
13482;DHT22;6813;60.352;15.746;2022-08-24T09:30:09;28.00;83.60
13482;DHT22;6813;60.352;15.746;2022-08-24T09:35:06;28.20;81.10
13482;DHT22;6813;60.352;15.746;2022-08-24T09:37:58;28.20;80.50
13482;DHT22;6813;60.352;15.746;2022-08-24T09:40:35;28.20;81.40
13482;DHT22;6813;60.352;15.746;2022-08-24T09:49:32;28.20;79.90
13482;DHT22;6813;60.352;15.746;2022-08-24T09:55:05;28.00;75.80
13482;DHT22;6813;60.352;15.746;2022-08-24T10:00:13;27.70;75.90
13482;DHT22;6813;60.352;15.746;2022-08-24T10:11:09;27.40;76.60
13482;DHT22;6813;60.352;15.746;2022-08-24T10:33:24;27.70;70.00
13482;DHT22;6813;60.352;15.746;2022-08-24T10:38:48;27.60;72.40
13482;DHT22;6813;60.352;15.746;2022-08-24T10:44:53;27.60;75.80
13482;DHT22;6813;60.352;15.746;2022-08-24T10:47:28;27.20;77.80
13482;DHT22;6813;60.352;15.746;2022-08-24T10:50:27;27.20;73.20
13482;DHT22;6813;60.352;15.746;2022-08-24T10:53:19;26.80;73.60
13482;DHT22;6813;60.352;15.746;2022-08-24T10:56:11;26.80;72.70
13482;DHT22;6813;60.352;15.746;2022-08-24T11:06:17;27.10;72.50
13482;DHT22;6813;60.352;15.746;2022-08-24T11:08:55;27.00;71.90
13482;DHT22;6813;60.352;15.746;2022-08-24T11:11:25;27.10;67.60
13482;DHT22;6813;60.352;15.746;2022-08-24T11:16:32;27.50;70.10
13482;DHT22;6813;60.352;15.746;2022-08-24T11:19:00;27.60;70.30
13482;DHT22;6813;60.352;15.746;2022-08-24T11:21:46;27.70;68.10
13482;DHT22;6813;60.352;15.746;2022-08-24T11:24:25;27.70;67.70
13482;DHT22;6813;60.352;15.746;2022-08-24T11:27:02;27.60;62.00
13482;DHT22;6813;60.352;15.746;2022-08-24T11:33:22;27.30;66.70
13482;DHT22;6813;60.352;15.746;2022-08-24T11:38:20;27.50;64.70
13482;DHT22;6813;60.352;15.746;2022-08-24T11:44:08;27.60;60.60
13482;DHT22;6813;60.352;15.746;2022-08-24T11:52:25;27.10;66.40
13482;DHT22;6813;60.352;15.746;2022-08-24T12:00:33;26.70;63.30
13482;DHT22;6813;60.352;15.746;2022-08-24T12:13:49;25.80;66.30
13482;DHT22;6813;60.352;15.746;2022-08-24T12:17:08;25.40;65.30
13482;DHT22;6813;60.352;15.746;2022-08-24T12:19:47;25.30;68.30
13482;DHT22;6813;60.352;15.746;2022-08-24T12:22:14;25.50;67.10
13482;DHT22;6813;60.352;15.746;2022-08-24T12:24:54;25.70;67.30
13482;DHT22;6813;60.352;15.746;2022-08-24T12:27:33;25.90;66.80
13482;DHT22;6813;60.352;15.746;2022-08-24T12:30:16;26.00;67.20
13482;DHT22;6813;60.352;15.746;2022-08-24T12:32:49;26.10;69.10
13482;DHT22;6813;60.352;15.746;2022-08-24T12:37:56;26.10;67.70
13482;DHT22;6813;60.352;15.746;2022-08-24T12:40:56;26.10;68.10
13482;DHT22;6813;60.352;15.746;2022-08-24T12:43:37;26.20;66.40
13482;DHT22;6813;60.352;15.746;2022-08-24T12:46:04;25.90;67.50
13482;DHT22;6813;60.352;15.746;2022-08-24T12:48:36;25.50;67.40
13482;DHT22;6813;60.352;15.746;2022-08-24T12:59:23;25.30;68.30
13482;DHT22;6813;60.352;15.746;2022-08-24T13:10:05;25.40;68.10
13482;DHT22;6813;60.352;15.746;2022-08-24T13:23:25;25.20;69.80
13482;DHT22;6813;60.352;15.746;2022-08-24T13:25:59;25.10;68.90
13482;DHT22;6813;60.352;15.746;2022-08-24T13:28:45;24.50;66.60
13482;DHT22;6813;60.352;15.746;2022-08-24T13:31:43;24.20;68.90
13482;DHT22;6813;60.352;15.746;2022-08-24T13:37:03;23.50;67.80
13482;DHT22;6813;60.352;15.746;2022-08-24T13:43:00;23.10;71.80
13482;DHT22;6813;60.352;15.746;2022-08-24T13:51:25;23.80;71.60
13482;DHT22;6813;60.352;15.746;2022-08-24T13:56:32;23.70;69.50
13482;DHT22;6813;60.352;15.746;2022-08-24T14:07:42;24.30;68.90
13482;DHT22;6813;60.352;15.746;2022-08-24T14:13:18;24.40;73.60
13482;DHT22;6813;60.352;15.746;2022-08-24T14:18:36;24.50;67.50
13482;DHT22;6813;60.352;15.746;2022-08-24T14:21:09;24.40;70.70
13482;DHT22;6813;60.352;15.746;2022-08-24T14:24:08;24.50;70.10
13482;DHT22;6813;60.352;15.746;2022-08-24T14:34:34;23.80;73.40
13482;DHT22;6813;60.352;15.746;2022-08-24T14:37:18;23.80;77.60
13482;DHT22;6813;60.352;15.746;2022-08-24T14:48:02;23.90;72.70
13482;DHT22;6813;60.352;15.746;2022-08-24T14:55:59;24.00;67.80
13482;DHT22;6813;60.352;15.746;2022-08-24T15:01:37;23.90;68.20
13482;DHT22;6813;60.352;15.746;2022-08-24T15:04:35;23.90;69.70
13482;DHT22;6813;60.352;15.746;2022-08-24T15:07:36;23.80;71.80
13482;DHT22;6813;60.352;15.746;2022-08-24T15:10:12;23.90;71.10
13482;DHT22;6813;60.352;15.746;2022-08-24T15:12:55;23.90;71.60
13482;DHT22;6813;60.352;15.746;2022-08-24T15:15:39;24.00;72.20
13482;DHT22;6813;60.352;15.746;2022-08-24T15:26:33;24.10;71.80
13482;DHT22;6813;60.352;15.746;2022-08-24T15:29:19;24.10;73.60
13482;DHT22;6813;60.352;15.746;2022-08-24T15:32:05;24.20;75.60
13482;DHT22;6813;60.352;15.746;2022-08-24T15:34:48;24.20;71.70
13482;DHT22;6813;60.352;15.746;2022-08-24T15:37:36;24.10;68.30
13482;DHT22;6813;60.352;15.746;2022-08-24T15:40:16;24.10;70.10
13482;DHT22;6813;60.352;15.746;2022-08-24T15:42:43;24.10;69.60
13482;DHT22;6813;60.352;15.746;2022-08-24T15:45:09;24.00;69.20
13482;DHT22;6813;60.352;15.746;2022-08-24T15:47:37;23.80;68.40
13482;DHT22;6813;60.352;15.746;2022-08-24T15:50:28;23.50;71.40
13482;DHT22;6813;60.352;15.746;2022-08-24T16:00:43;23.50;72.80
13482;DHT22;6813;60.352;15.746;2022-08-24T16:03:48;23.50;72.30
13482;DHT22;6813;60.352;15.746;2022-08-24T16:11:39;23.10;70.90
13482;DHT22;6813;60.352;15.746;2022-08-24T16:14:30;23.00;71.70
13482;DHT22;6813;60.352;15.746;2022-08-24T16:16:56;23.10;71.70
13482;DHT22;6813;60.352;15.746;2022-08-24T16:19:25;23.20;72.00
13482;DHT22;6813;60.352;15.746;2022-08-24T16:22:02;23.30;73.60
13482;DHT22;6813;60.352;15.746;2022-08-24T16:24:33;23.30;74.70
13482;DHT22;6813;60.352;15.746;2022-08-24T16:27:27;23.40;73.20
13482;DHT22;6813;60.352;15.746;2022-08-24T16:30:23;23.30;72.20
13482;DHT22;6813;60.352;15.746;2022-08-24T16:32:55;23.20;73.40
13482;DHT22;6813;60.352;15.746;2022-08-24T16:35:23;23.10;71.50
13482;DHT22;6813;60.352;15.746;2022-08-24T16:37:49;23.10;73.50
13482;DHT22;6813;60.352;15.746;2022-08-24T16:40:19;23.10;73.80
13482;DHT22;6813;60.352;15.746;2022-08-24T16:42:47;23.20;72.70
13482;DHT22;6813;60.352;15.746;2022-08-24T16:45:16;23.30;72.90
13482;DHT22;6813;60.352;15.746;2022-08-24T16:47:45;23.30;71.60
13482;DHT22;6813;60.352;15.746;2022-08-24T16:50:17;23.30;71.10
13482;DHT22;6813;60.352;15.746;2022-08-24T16:52:44;23.30;72.80
13482;DHT22;6813;60.352;15.746;2022-08-24T16:55:10;23.30;72.90
13482;DHT22;6813;60.352;15.746;2022-08-24T16:57:36;23.30;72.80
13482;DHT22;6813;60.352;15.746;2022-08-24T17:00:10;23.20;73.30
13482;DHT22;6813;60.352;15.746;2022-08-24T17:02:38;23.30;74.50
13482;DHT22;6813;60.352;15.746;2022-08-24T17:05:04;23.30;74.60
13482;DHT22;6813;60.352;15.746;2022-08-24T17:07:31;23.30;75.40
13482;DHT22;6813;60.352;15.746;2022-08-24T17:09:57;23.30;76.70
13482;DHT22;6813;60.352;15.746;2022-08-24T17:12:24;23.30;76.30
13482;DHT22;6813;60.352;15.746;2022-08-24T17:14:51;23.30;79.30
13482;DHT22;6813;60.352;15.746;2022-08-24T17:17:20;23.30;83.80
13482;DHT22;6813;60.352;15.746;2022-08-24T17:19:48;23.20;84.40
13482;DHT22;6813;60.352;15.746;2022-08-24T17:22:17;23.20;85.20
13482;DHT22;6813;60.352;15.746;2022-08-24T17:24:44;23.20;86.30
13482;DHT22;6813;60.352;15.746;2022-08-24T17:27:12;23.30;85.70
13482;DHT22;6813;60.352;15.746;2022-08-24T17:29:38;23.20;84.00
13482;DHT22;6813;60.352;15.746;2022-08-24T17:32:05;23.20;86.10
13482;DHT22;6813;60.352;15.746;2022-08-24T17:34:31;23.20;86.10
13482;DHT22;6813;60.352;15.746;2022-08-24T17:36:57;23.20;85.10
13482;DHT22;6813;60.352;15.746;2022-08-24T17:39:24;23.10;84.60
13482;DHT22;6813;60.352;15.746;2022-08-24T17:41:55;23.10;84.90
13482;DHT22;6813;60.352;15.746;2022-08-24T17:44:24;23.00;84.20
13482;DHT22;6813;60.352;15.746;2022-08-24T17:46:53;23.00;83.40
13482;DHT22;6813;60.352;15.746;2022-08-24T17:49:20;22.90;83.20
13482;DHT22;6813;60.352;15.746;2022-08-24T17:51:46;22.80;85.20
13482;DHT22;6813;60.352;15.746;2022-08-24T17:54:13;22.80;85.20
13482;DHT22;6813;60.352;15.746;2022-08-24T17:56:39;22.70;83.80
13482;DHT22;6813;60.352;15.746;2022-08-24T17:59:10;22.70;85.70
13482;DHT22;6813;60.352;15.746;2022-08-24T18:01:57;22.70;85.60
13482;DHT22;6813;60.352;15.746;2022-08-24T18:04:24;22.60;86.60
13482;DHT22;6813;60.352;15.746;2022-08-24T18:06:53;22.60;89.20
13482;DHT22;6813;60.352;15.746;2022-08-24T18:09:41;22.60;89.20
13482;DHT22;6813;60.352;15.746;2022-08-24T18:12:07;22.60;86.30
13482;DHT22;6813;60.352;15.746;2022-08-24T18:14:34;22.50;84.90
13482;DHT22;6813;60.352;15.746;2022-08-24T18:17:05;22.30;84.70
13482;DHT22;6813;60.352;15.746;2022-08-24T18:19:32;22.10;85.60
13482;DHT22;6813;60.352;15.746;2022-08-24T18:21:59;21.90;86.50
13482;DHT22;6813;60.352;15.746;2022-08-24T18:24:26;21.80;87.90
13482;DHT22;6813;60.352;15.746;2022-08-24T18:26:59;21.80;89.20
13482;DHT22;6813;60.352;15.746;2022-08-24T18:29:28;21.70;89.00
13482;DHT22;6813;60.352;15.746;2022-08-24T18:31:56;21.60;89.30
13482;DHT22;6813;60.352;15.746;2022-08-24T18:34:23;21.50;90.00
13482;DHT22;6813;60.352;15.746;2022-08-24T18:36:50;21.40;90.60
13482;DHT22;6813;60.352;15.746;2022-08-24T18:39:16;21.40;90.60
13482;DHT22;6813;60.352;15.746;2022-08-24T18:41:44;21.30;90.70
13482;DHT22;6813;60.352;15.746;2022-08-24T18:44:10;21.30;90.60
13482;DHT22;6813;60.352;15.746;2022-08-24T18:46:38;21.20;90.50
13482;DHT22;6813;60.352;15.746;2022-08-24T18:49:05;21.10;90.60
13482;DHT22;6813;60.352;15.746;2022-08-24T18:51:32;21.00;90.90
13482;DHT22;6813;60.352;15.746;2022-08-24T18:54:09;20.90;91.10
13482;DHT22;6813;60.352;15.746;2022-08-24T18:56:35;20.80;91.60
13482;DHT22;6813;60.352;15.746;2022-08-24T18:59:03;20.70;92.20
13482;DHT22;6813;60.352;15.746;2022-08-24T19:01:29;20.50;92.60
13482;DHT22;6813;60.352;15.746;2022-08-24T19:03:56;20.40;92.80
13482;DHT22;6813;60.352;15.746;2022-08-24T19:06:22;20.20;93.10
13482;DHT22;6813;60.352;15.746;2022-08-24T19:08:49;20.20;93.30
13482;DHT22;6813;60.352;15.746;2022-08-24T19:11:21;20.10;93.50
13482;DHT22;6813;60.352;15.746;2022-08-24T19:13:47;20.00;93.90
13482;DHT22;6813;60.352;15.746;2022-08-24T19:16:13;19.90;94.20
13482;DHT22;6813;60.352;15.746;2022-08-24T19:18:39;19.90;94.60
13482;DHT22;6813;60.352;15.746;2022-08-24T19:21:04;19.80;94.80
13482;DHT22;6813;60.352;15.746;2022-08-24T19:23:33;19.80;95.00
13482;DHT22;6813;60.352;15.746;2022-08-24T19:26:02;19.70;95.20
13482;DHT22;6813;60.352;15.746;2022-08-24T19:28:28;19.60;95.30
13482;DHT22;6813;60.352;15.746;2022-08-24T19:30:59;19.60;95.50
13482;DHT22;6813;60.352;15.746;2022-08-24T19:33:30;19.60;95.70
13482;DHT22;6813;60.352;15.746;2022-08-24T19:35:58;19.50;95.70
13482;DHT22;6813;60.352;15.746;2022-08-24T19:38:24;19.40;96.10